Time;durP1;ratioP1;P1;durP2;ratioP2;P2;SDS_P1;SDS_P2;PMS_P1;PMS_P2;Temp;Humidity;BMP_temperature;BMP_pressure;BME280_temperature;BME280_humidity;BME280_pressure;Samples;Min_cycle;Max_cycle;Signal;HPM_P1;HPM_P2
2023/08/21 00:01:32;;;;;;;0.40;0.40;;;17.20;99.90;;;;;;5063510;28;20047;-76
2023/08/21 00:03:58;;;;;;;0.50;0.50;;;17.10;99.90;;;;;;5062983;28;20052;-76
2023/08/21 00:06:25;;;;;;;0.80;0.43;;;17.00;99.90;;;;;;5062638;28;20194;-76
2023/08/21 00:08:52;;;;;;;0.43;0.20;;;17.00;99.90;;;;;;5028984;28;20417;-76
2023/08/21 00:11:19;;;;;;;0.35;0.32;;;16.90;1.00;;;;;;5043496;28;20052;-76
2023/08/21 00:13:47;;;;;;;0.52;0.28;;;16.90;99.90;;;;;;5062044;28;20052;-76
2023/08/21 00:16:14;;;;;;;0.55;0.35;;;16.80;1.00;;;;;;5045026;28;20060;-76
2023/08/21 00:18:41;;;;;;;0.50;0.30;;;16.80;1.00;;;;;;5078539;28;20052;-76
2023/08/21 00:21:08;;;;;;;0.80;0.40;;;16.80;1.00;;;;;;5061300;28;20060;-76
2023/08/21 00:23:35;;;;;;;0.32;0.28;;;16.80;1.00;;;;;;5026694;28;20044;-76
2023/08/21 00:26:02;;;;;;;0.35;0.30;;;16.80;1.00;;;;;;5059589;28;20075;-76
2023/08/21 00:28:32;;;;;;;0.80;0.47;;;16.70;1.00;;;;;;5060682;28;20458;-76
2023/08/21 00:31:03;;;;;;;0.20;0.20;;;16.60;1.00;;;;;;5062249;28;20053;-76
2023/08/21 00:33:33;;;;;;;0.40;0.20;;;16.50;1.00;;;;;;5027796;28;20059;-76
2023/08/21 00:36:00;;;;;;;0.82;0.32;;;16.50;42.20;;;;;;5057044;28;20692;-76
2023/08/21 00:38:26;;;;;;;0.40;0.20;;;16.50;35.10;;;;;;5062605;28;20423;-76
2023/08/21 00:40:53;;;;;;;0.10;0.10;;;16.50;20.10;;;;;;5061435;28;20110;-76
2023/08/21 00:43:20;;;;;;;0.20;0.20;;;16.50;1.00;;;;;;5044095;28;20419;-76
2023/08/21 00:45:48;;;;;;;0.28;0.28;;;16.50;2.90;;;;;;5061098;28;20048;-75
2023/08/21 00:48:15;;;;;;;0.30;0.30;;;16.40;64.00;;;;;;5028381;28;20090;-77
2023/08/21 00:50:42;;;;;;;0.40;0.30;;;16.40;90.70;;;;;;5077947;28;20373;-77
2023/08/21 00:53:09;;;;;;;0.43;0.22;;;16.40;99.90;;;;;;5072917;28;20146;-77
2023/08/21 00:55:35;;;;;;;0.28;0.28;;;16.40;99.90;;;;;;5077640;28;20053;-77
2023/08/21 00:58:03;;;;;;;0.20;0.20;;;16.40;99.90;;;;;;5042255;28;20488;-77
2023/08/21 01:00:30;;;;;;;0.25;0.20;;;16.40;99.90;;;;;;5062634;28;20040;-77
2023/08/21 01:02:57;;;;;;;0.55;0.28;;;16.40;99.90;;;;;;5060561;28;20188;-78
2023/08/21 01:05:24;;;;;;;0.32;0.25;;;16.30;99.90;;;;;;5061843;28;20056;-77
2023/08/21 01:08:02;;;;;;;0.30;0.30;;;16.30;99.90;;;;;;5044119;28;20060;-77
2023/08/21 01:10:40;;;;;;;0.40;0.40;;;16.30;99.90;;;;;;5044331;28;20545;-77
2023/08/21 01:13:30;;;;;;;0.40;0.30;;;16.30;99.90;;;;;;5043838;28;20106;-76
2023/08/21 01:15:57;;;;;;;0.50;0.30;;;16.20;99.90;;;;;;5046804;28;20044;-77
2023/08/21 01:18:24;;;;;;;0.20;0.20;;;16.20;99.90;;;;;;5077616;28;20044;-77
2023/08/21 01:20:51;;;;;;;0.50;0.30;;;16.10;99.90;;;;;;5077312;28;20049;-77
2023/08/21 01:23:34;;;;;;;0.30;0.30;;;16.10;99.90;;;;;;5077445;28;20125;-77
2023/08/21 01:26:00;;;;;;;0.17;0.15;;;16.00;99.90;;;;;;5060676;28;20048;-77
2023/08/21 01:28:27;;;;;;;0.70;0.35;;;16.00;99.90;;;;;;5059991;28;20094;-77
2023/08/21 01:31:26;;;;;;;0.55;0.43;;;16.00;99.90;;;;;;5060702;28;20052;-76
2023/08/21 01:33:59;;;;;;;0.17;0.17;;;15.90;99.90;;;;;;5045812;28;20056;-77
2023/08/21 01:36:26;;;;;;;0.60;0.57;;;15.90;99.90;;;;;;5064076;28;20072;-77
2023/08/21 01:38:53;;;;;;;0.47;0.40;;;15.80;99.90;;;;;;5097854;28;20363;-78
2023/08/21 01:41:23;;;;;;;0.20;0.20;;;15.80;99.90;;;;;;5078135;28;20678;-77
2023/08/21 01:43:49;;;;;;;0.20;0.20;;;15.80;99.90;;;;;;5047663;28;20060;-77
2023/08/21 01:46:16;;;;;;;0.20;0.20;;;15.80;99.90;;;;;;5064931;28;20471;-77
2023/08/21 01:48:43;;;;;;;0.30;0.30;;;15.90;99.90;;;;;;5063593;28;20616;-77
2023/08/21 01:51:10;;;;;;;0.30;0.30;;;15.90;1.00;;;;;;5061595;28;20048;-78
2023/08/21 01:53:36;;;;;;;0.17;0.10;;;15.90;1.00;;;;;;5064215;28;20106;-77
2023/08/21 01:56:03;;;;;;;0.22;0.22;;;15.90;1.00;;;;;;5063978;28;20064;-77
2023/08/21 01:58:30;;;;;;;0.30;0.20;;;15.90;1.00;;;;;;5064551;28;20048;-77
2023/08/21 02:00:57;;;;;;;0.50;0.38;;;15.90;1.00;;;;;;5064979;28;20040;-77
2023/08/21 02:03:25;;;;;;;0.35;0.35;;;15.90;1.00;;;;;;5064713;28;20084;-76
2023/08/21 02:05:56;;;;;;;0.25;0.20;;;15.90;1.00;;;;;;5056088;28;20114;-78
2023/08/21 02:08:27;;;;;;;0.30;0.30;;;15.90;1.00;;;;;;5063589;28;20433;-77
2023/08/21 02:10:53;;;;;;;0.20;0.20;;;15.90;1.00;;;;;;5063707;28;20052;-76
2023/08/21 02:13:20;;;;;;;0.10;0.10;;;15.90;1.00;;;;;;5062045;28;20106;-77
2023/08/21 02:15:47;;;;;;;0.30;0.30;;;15.90;1.00;;;;;;5064693;28;20150;-77
2023/08/21 02:18:14;;;;;;;0.65;0.38;;;15.80;23.80;;;;;;5062992;28;20048;-77
2023/08/21 02:20:41;;;;;;;0.30;0.25;;;15.90;66.30;;;;;;5065013;28;20048;-77
2023/08/21 02:23:07;;;;;;;0.80;0.40;;;15.80;85.90;;;;;;5063945;28;20052;-77
2023/08/21 02:25:34;;;;;;;0.30;0.30;;;15.80;99.90;;;;;;5064629;28;20048;-77
2023/08/21 02:28:01;;;;;;;0.35;0.35;;;15.80;99.90;;;;;;5063130;28;20055;-77
2023/08/21 02:30:28;;;;;;;0.35;0.30;;;15.80;99.90;;;;;;5047581;28;20056;-77
2023/08/21 02:32:55;;;;;;;0.65;0.47;;;15.70;99.90;;;;;;5062900;28;20534;-77
2023/08/21 02:35:22;;;;;;;0.60;0.50;;;15.70;99.90;;;;;;5064707;28;20184;-78
2023/08/21 02:37:48;;;;;;;0.38;0.35;;;15.70;99.90;;;;;;5079748;28;20124;-77
2023/08/21 02:40:15;;;;;;;0.63;0.32;;;15.70;99.90;;;;;;5063104;28;20551;-77
2023/08/21 02:42:42;;;;;;;0.25;0.25;;;15.80;99.90;;;;;;5077579;28;20109;-77
2023/08/21 02:45:09;;;;;;;1.33;0.52;;;15.70;99.90;;;;;;5064151;28;20098;-77
2023/08/21 02:47:40;;;;;;;0.40;0.30;;;15.70;99.90;;;;;;5063907;28;20090;-76
2023/08/21 02:50:07;;;;;;;0.40;0.40;;;15.70;99.90;;;;;;5064259;28;20045;-76
2023/08/21 02:52:34;;;;;;;1.48;0.47;;;15.60;97.10;;;;;;5045665;28;20477;-76
2023/08/21 02:55:03;;;;;;;0.70;0.70;;;15.60;91.30;;;;;;5064345;28;20575;-77
2023/08/21 02:57:29;;;;;;;0.93;0.52;;;15.60;96.40;;;;;;5060889;28;20049;-76
2023/08/21 02:59:56;;;;;;;0.40;0.40;;;15.60;99.90;;;;;;5046258;28;20128;-76
2023/08/21 03:02:23;;;;;;;0.40;0.40;;;15.60;99.90;;;;;;5068170;28;20040;-76
2023/08/21 03:04:51;;;;;;;0.80;0.38;;;15.60;99.90;;;;;;5052739;28;20060;-76
2023/08/21 03:07:18;;;;;;;0.50;0.50;;;15.60;99.90;;;;;;5069194;28;20044;-76
2023/08/21 03:09:49;;;;;;;0.30;0.30;;;15.50;99.90;;;;;;5069441;28;20106;-77
2023/08/21 03:12:15;;;;;;;0.40;0.40;;;15.50;99.90;;;;;;5100191;28;20053;-77
2023/08/21 03:14:42;;;;;;;0.57;0.55;;;15.50;99.90;;;;;;5068952;28;20060;-76
2023/08/21 03:17:09;;;;;;;0.50;0.40;;;15.60;99.90;;;;;;5035973;28;20495;-76
2023/08/21 03:19:36;;;;;;;0.40;0.40;;;15.60;99.90;;;;;;5068828;28;20506;-76
2023/08/21 03:22:02;;;;;;;0.60;0.60;;;15.50;99.90;;;;;;5069269;28;20419;-76
2023/08/21 03:24:29;;;;;;;1.10;0.80;;;15.50;99.90;;;;;;5069226;28;20049;-76
2023/08/21 03:26:56;;;;;;;0.60;0.57;;;15.50;99.90;;;;;;5067403;28;20048;-75
2023/08/21 03:29:23;;;;;;;0.50;0.47;;;15.50;99.90;;;;;;5069672;28;20133;-76
2023/08/21 03:31:50;;;;;;;0.68;0.50;;;15.60;99.90;;;;;;5070664;28;20468;-75
2023/08/21 03:34:16;;;;;;;1.25;0.50;;;15.60;99.90;;;;;;5069370;28;20048;-76
2023/08/21 03:36:43;;;;;;;1.05;0.52;;;15.60;99.90;;;;;;5069751;28;20044;-77
2023/08/21 03:39:10;;;;;;;0.65;0.60;;;15.60;99.90;;;;;;5070327;28;20063;-76
2023/08/21 03:41:37;;;;;;;0.43;0.30;;;15.60;99.90;;;;;;5068726;28;20072;-76
2023/08/21 03:44:03;;;;;;;0.75;0.73;;;15.70;99.90;;;;;;5070467;28;20076;-76
2023/08/21 03:46:30;;;;;;;0.50;0.50;;;15.70;99.90;;;;;;5070378;28;20048;-77
2023/08/21 03:48:57;;;;;;;0.63;0.57;;;15.80;99.90;;;;;;5068692;28;20052;-76
2023/08/21 03:51:24;;;;;;;1.25;0.60;;;15.80;99.90;;;;;;5070202;28;20055;-76
2023/08/21 03:53:51;;;;;;;1.35;0.75;;;15.90;99.90;;;;;;5070812;28;20328;-76
2023/08/21 03:56:19;;;;;;;0.90;0.63;;;15.90;99.90;;;;;;5068402;28;20470;-76
2023/08/21 03:58:45;;;;;;;0.65;0.60;;;15.90;99.90;;;;;;5070775;28;20629;-76
2023/08/21 04:01:12;;;;;;;1.42;0.63;;;16.00;99.90;;;;;;5070558;28;20083;-76
2023/08/21 04:03:39;;;;;;;0.95;0.75;;;16.00;99.90;;;;;;5069958;28;20052;-77
2023/08/21 04:06:06;;;;;;;0.85;0.60;;;16.00;99.90;;;;;;5069944;28;20099;-76
2023/08/21 04:08:32;;;;;;;1.15;1.00;;;16.00;99.90;;;;;;5069239;28;20581;-76
2023/08/21 04:11:00;;;;;;;0.93;0.60;;;16.10;99.90;;;;;;5069147;28;20571;-75
2023/08/21 04:13:26;;;;;;;1.38;0.73;;;16.10;99.90;;;;;;5067201;28;20503;-76
2023/08/21 04:15:54;;;;;;;0.73;0.50;;;16.10;99.90;;;;;;5067027;28;20048;-76
2023/08/21 04:18:20;;;;;;;1.95;1.23;;;16.10;99.90;;;;;;5066856;28;20127;-76
2023/08/21 04:21:05;;;;;;;0.80;0.65;;;16.10;99.90;;;;;;5066489;28;20048;-75
2023/08/21 04:23:31;;;;;;;1.52;0.82;;;16.10;99.90;;;;;;5066704;28;20052;-76
2023/08/21 04:26:02;;;;;;;1.65;0.73;;;16.10;99.90;;;;;;5066018;28;20056;-76
2023/08/21 04:28:32;;;;;;;0.77;0.70;;;16.10;99.90;;;;;;5066762;28;20041;-76
2023/08/21 04:30:58;;;;;;;1.42;0.90;;;16.10;99.90;;;;;;5065597;28;20114;-77
2023/08/21 04:33:27;;;;;;;1.10;0.80;;;16.10;99.90;;;;;;5065017;28;20147;-77
2023/08/21 04:35:53;;;;;;;0.40;0.40;;;16.20;99.90;;;;;;5065899;28;20646;-77
2023/08/21 04:38:20;;;;;;;1.08;0.85;;;16.20;99.90;;;;;;5065131;28;20545;-77
2023/08/21 04:40:47;;;;;;;1.08;0.73;;;16.20;99.90;;;;;;5066152;28;20131;-77
2023/08/21 04:43:14;;;;;;;0.57;0.50;;;16.20;99.90;;;;;;5064791;28;20049;-76
2023/08/21 04:45:52;;;;;;;1.35;0.60;;;16.20;99.90;;;;;;5066762;28;20102;-77
2023/08/21 04:48:20;;;;;;;1.65;0.77;;;16.20;99.90;;;;;;5030904;28;20056;-76
2023/08/21 04:50:47;;;;;;;1.30;0.70;;;16.20;99.90;;;;;;5065387;28;20100;-77
2023/08/21 04:53:13;;;;;;;0.65;0.63;;;16.20;99.90;;;;;;5065953;28;20041;-77
2023/08/21 04:55:40;;;;;;;1.50;0.90;;;16.30;99.90;;;;;;5064175;28;20132;-77
2023/08/21 04:58:07;;;;;;;0.70;0.70;;;16.30;99.90;;;;;;5064548;28;20450;-77
2023/08/21 05:00:34;;;;;;;2.17;0.85;;;16.30;99.90;;;;;;5066582;28;20053;-76
2023/08/21 05:03:01;;;;;;;1.75;0.88;;;16.20;99.90;;;;;;5061918;28;20044;-77
2023/08/21 05:05:28;;;;;;;0.85;0.60;;;16.20;99.90;;;;;;5045439;28;20057;-77
2023/08/21 05:07:55;;;;;;;0.68;0.50;;;16.10;99.90;;;;;;5047282;28;20121;-77
2023/08/21 05:10:22;;;;;;;1.38;0.60;;;16.20;99.90;;;;;;5056008;28;20048;-76
2023/08/21 05:12:49;;;;;;;1.05;0.70;;;16.20;99.90;;;;;;5057766;28;20056;-76
2023/08/21 05:15:16;;;;;;;0.70;0.60;;;16.30;99.90;;;;;;5057701;28;20051;-76
2023/08/21 05:17:43;;;;;;;0.20;0.20;;;16.40;99.90;;;;;;5061761;28;20067;-76
2023/08/21 05:20:13;;;;;;;0.43;0.30;;;16.40;99.90;;;;;;5090764;28;20076;-76
2023/08/21 05:22:40;;;;;;;0.65;0.60;;;16.50;99.90;;;;;;5055598;28;20063;-76
2023/08/21 05:25:08;;;;;;;1.10;0.68;;;16.50;99.90;;;;;;5024358;28;20056;-77
2023/08/21 05:27:35;;;;;;;0.73;0.40;;;16.40;99.90;;;;;;5092099;28;20590;-76
2023/08/21 05:30:02;;;;;;;0.40;0.40;;;16.50;99.90;;;;;;5063620;28;20132;-76
2023/08/21 05:32:29;;;;;;;0.55;0.50;;;16.50;99.90;;;;;;5050306;28;20109;-76
2023/08/21 05:34:56;;;;;;;1.55;0.82;;;16.50;99.90;;;;;;5044120;28;20536;-76
2023/08/21 05:37:23;;;;;;;0.50;0.50;;;16.50;99.90;;;;;;5057319;28;20044;-76
2023/08/21 05:39:50;;;;;;;0.70;0.60;;;16.50;99.90;;;;;;5059952;28;20198;-75
2023/08/21 05:42:16;;;;;;;0.60;0.60;;;16.50;99.90;;;;;;5055093;28;20143;-76
2023/08/21 05:44:43;;;;;;;0.77;0.70;;;16.50;99.90;;;;;;5058375;28;20052;-77
2023/08/21 05:47:10;;;;;;;1.17;0.70;;;16.50;99.90;;;;;;5059071;28;20164;-78
2023/08/21 05:49:37;;;;;;;0.98;0.80;;;16.40;99.90;;;;;;5058792;28;20049;-76
2023/08/21 05:52:03;;;;;;;1.23;0.70;;;16.40;99.90;;;;;;5058763;28;20106;-76
2023/08/21 05:54:30;;;;;;;0.95;0.82;;;16.40;99.90;;;;;;5057033;28;20098;-76
2023/08/21 05:56:57;;;;;;;1.17;0.60;;;16.40;99.90;;;;;;5050421;28;20499;-76
2023/08/21 05:59:29;;;;;;;0.95;0.80;;;16.30;99.90;;;;;;5058049;28;20048;-77
2023/08/21 06:01:56;;;;;;;0.52;0.52;;;16.40;99.90;;;;;;5058893;28;20045;-77
2023/08/21 06:04:24;;;;;;;0.82;0.60;;;16.40;99.90;;;;;;5055799;28;20063;-77
2023/08/21 06:06:51;;;;;;;0.73;0.57;;;16.40;99.90;;;;;;5056417;28;20040;-77
2023/08/21 06:09:17;;;;;;;1.15;0.80;;;16.40;99.90;;;;;;5057534;28;20471;-76
2023/08/21 06:11:44;;;;;;;1.00;0.70;;;16.40;99.90;;;;;;5050250;28;20212;-76
2023/08/21 06:14:11;;;;;;;1.45;0.70;;;16.40;99.90;;;;;;5058060;28;20040;-76
2023/08/21 06:16:38;;;;;;;0.60;0.50;;;16.40;99.90;;;;;;5054736;28;20110;-76
2023/08/21 06:19:05;;;;;;;0.43;0.40;;;16.40;99.90;;;;;;5058566;28;20048;-78
2023/08/21 06:21:32;;;;;;;0.68;0.57;;;16.50;99.90;;;;;;5053218;28;20036;-77
2023/08/21 06:23:58;;;;;;;1.15;0.80;;;16.50;99.90;;;;;;5044878;28;20099;-79
2023/08/21 06:26:25;;;;;;;1.17;0.63;;;16.50;99.90;;;;;;5057031;28;20716;-78
2023/08/21 06:28:52;;;;;;;1.42;0.77;;;16.50;99.90;;;;;;5058809;28;20048;-79
2023/08/21 06:31:20;;;;;;;1.00;0.75;;;16.50;99.90;;;;;;5060824;28;20127;-79
2023/08/21 06:33:47;;;;;;;0.60;0.43;;;16.40;99.90;;;;;;5059408;28;20519;-78
2023/08/21 06:36:14;;;;;;;0.55;0.55;;;16.50;99.90;;;;;;5041898;28;20151;-79
2023/08/21 06:38:41;;;;;;;0.98;0.80;;;16.50;99.90;;;;;;5058621;28;20636;-79
2023/08/21 06:41:08;;;;;;;0.32;0.32;;;16.60;99.90;;;;;;5057147;28;20277;-79
2023/08/21 06:43:39;;;;;;;0.60;0.50;;;16.70;99.90;;;;;;5058551;28;20461;-79
2023/08/21 06:46:10;;;;;;;0.83;0.43;;;16.70;99.90;;;;;;5056768;28;20048;-79
2023/08/21 06:48:39;;;;;;;0.52;0.50;;;16.70;99.90;;;;;;5072646;28;20044;-77
2023/08/21 06:51:05;;;;;;;0.68;0.50;;;16.70;99.90;;;;;;5025317;28;20162;-77
2023/08/21 06:53:32;;;;;;;0.75;0.50;;;16.70;99.90;;;;;;5041708;28;20512;-77
2023/08/21 06:55:59;;;;;;;0.45;0.45;;;16.70;99.90;;;;;;5024559;28;20555;-77
2023/08/21 06:58:26;;;;;;;0.40;0.40;;;16.70;99.90;;;;;;5058133;28;20045;-80
2023/08/21 07:00:55;;;;;;;0.80;0.43;;;16.90;99.90;;;;;;5060162;28;20533;-79
2023/08/21 07:03:22;;;;;;;0.63;0.60;;;17.00;99.90;;;;;;5058282;28;20439;-79
2023/08/21 07:05:56;;;;;;;0.85;0.60;;;17.00;80.10;;;;;;5058362;28;20056;-79
2023/08/21 07:08:23;;;;;;;0.50;0.43;;;17.00;62.10;;;;;;5042271;28;20044;-80
2023/08/21 07:10:50;;;;;;;0.70;0.50;;;17.10;57.60;;;;;;5050385;28;20051;-78
2023/08/21 07:13:17;;;;;;;0.38;0.28;;;17.10;16.20;;;;;;5055022;28;20167;-79
2023/08/21 07:15:44;;;;;;;0.57;0.45;;;17.10;11.70;;;;;;5042644;28;20513;-78
2023/08/21 07:18:10;;;;;;;0.50;0.50;;;17.10;17.50;;;;;;5059300;28;20095;-79
2023/08/21 07:20:37;;;;;;;0.75;0.50;;;17.20;10.00;;;;;;5059385;28;20427;-79
2023/08/21 07:23:04;;;;;;;1.15;0.60;;;17.20;1.00;;;;;;5042105;28;20716;-78
2023/08/21 07:25:31;;;;;;;0.65;0.50;;;17.30;1.00;;;;;;5059093;28;20136;-79
2023/08/21 07:27:58;;;;;;;1.05;0.40;;;17.30;1.00;;;;;;5057413;28;20296;-77
2023/08/21 07:30:25;;;;;;;0.88;0.60;;;17.30;1.00;;;;;;5059950;28;20106;-78
2023/08/21 07:32:52;;;;;;;0.98;0.50;;;17.40;1.00;;;;;;5059939;28;20094;-78
2023/08/21 07:35:20;;;;;;;0.95;0.60;;;17.40;1.00;;;;;;5058879;28;20052;-78
2023/08/21 07:37:47;;;;;;;0.85;0.55;;;17.40;1.00;;;;;;5060131;28;20048;-78
2023/08/21 07:40:14;;;;;;;0.68;0.55;;;17.50;1.00;;;;;;5058760;28;20055;-78
2023/08/21 07:42:41;;;;;;;1.17;0.60;;;17.60;1.00;;;;;;5058900;28;20045;-78
2023/08/21 07:45:08;;;;;;;0.50;0.50;;;17.60;1.00;;;;;;5045166;28;20068;-78
2023/08/21 07:47:35;;;;;;;0.68;0.60;;;17.70;1.00;;;;;;5045343;28;20060;-78
2023/08/21 07:50:05;;;;;;;0.68;0.50;;;17.80;99.90;;;;;;5033107;28;20060;-78
2023/08/21 07:52:32;;;;;;;0.65;0.40;;;17.80;99.90;;;;;;5065136;28;20057;-79
2023/08/21 07:55:01;;;;;;;0.95;0.60;;;17.70;99.90;;;;;;5065449;28;20044;-79
2023/08/21 07:57:29;;;;;;;1.13;0.60;;;17.80;99.90;;;;;;5063502;28;20110;-79
2023/08/21 07:59:55;;;;;;;0.82;0.60;;;17.80;99.90;;;;;;5065529;28;20128;-80
2023/08/21 08:02:23;;;;;;;1.30;0.47;;;17.80;99.90;;;;;;5041855;28;20063;-84
2023/08/21 08:04:50;;;;;;;1.20;0.63;;;17.90;99.90;;;;;;5055992;28;20431;-83
2023/08/21 08:07:18;;;;;;;0.63;0.40;;;17.90;99.90;;;;;;5072395;28;20565;-83
2023/08/21 08:09:46;;;;;;;0.47;0.40;;;17.80;99.90;;;;;;5057815;28;20165;-80
2023/08/21 08:12:14;;;;;;;1.05;0.70;;;17.90;99.90;;;;;;5068623;28;20644;-83
2023/08/21 08:14:40;;;;;;;0.57;0.40;;;17.90;99.90;;;;;;5041005;28;20808;-83
2023/08/21 08:17:07;;;;;;;0.65;0.50;;;17.90;99.90;;;;;;5051066;28;20626;-83
2023/08/21 08:19:34;;;;;;;0.50;0.30;;;18.00;99.90;;;;;;5040168;28;20052;-83
2023/08/21 08:22:01;;;;;;;0.63;0.50;;;17.90;99.90;;;;;;5073423;28;20114;-83
2023/08/21 08:24:28;;;;;;;1.10;0.50;;;18.00;30.30;;;;;;5075224;28;20071;-83
2023/08/21 08:26:55;;;;;;;0.65;0.50;;;18.00;67.10;;;;;;5050335;28;20145;-83
2023/08/21 08:29:22;;;;;;;0.47;0.40;;;18.00;56.40;;;;;;5047275;28;20204;-82
2023/08/21 08:31:49;;;;;;;0.50;0.50;;;18.00;26.60;;;;;;5054389;28;20695;-83
2023/08/21 08:34:20;;;;;;;0.55;0.40;;;18.10;51.00;;;;;;5071230;28;20055;-82
2023/08/21 08:36:47;;;;;;;0.40;0.40;;;18.20;1.00;;;;;;5074933;28;20056;-82
2023/08/21 08:39:14;;;;;;;0.55;0.40;;;18.30;1.00;;;;;;5075146;28;20052;-82
2023/08/21 08:41:48;;;;;;;0.57;0.50;;;18.40;1.00;;;;;;5064828;28;20056;-82
2023/08/21 08:44:15;;;;;;;0.60;0.60;;;18.50;99.90;;;;;;5051728;28;20064;-83
2023/08/21 08:46:42;;;;;;;0.38;0.38;;;18.60;99.90;;;;;;5021966;28;20059;-83
2023/08/21 08:49:09;;;;;;;0.50;0.47;;;18.80;10.00;;;;;;5071798;28;20621;-83
2023/08/21 08:51:37;;;;;;;0.60;0.35;;;18.80;99.90;;;;;;5072730;28;20937;-84
2023/08/21 08:54:03;;;;;;;1.05;0.60;;;19.00;99.90;;;;;;5038876;28;20048;-79
2023/08/21 08:56:30;;;;;;;1.45;0.60;;;19.10;99.90;;;;;;5057927;28;20436;-82
2023/08/21 08:58:57;;;;;;;0.65;0.40;;;19.20;1.00;;;;;;5063569;28;20098;-81
2023/08/21 09:01:24;;;;;;;0.30;0.30;;;19.30;1.00;;;;;;5047679;28;20056;-81
2023/08/21 09:03:51;;;;;;;0.25;0.25;;;19.60;1.00;;;;;;5031054;28;20138;-81
2023/08/21 09:06:17;;;;;;;0.82;0.38;;;19.90;1.00;;;;;;5063896;28;20048;-80
2023/08/21 09:08:57;;;;;;;0.70;0.30;;;20.00;1.00;;;;;;5064509;28;20102;-80
2023/08/21 09:11:24;;;;;;;0.30;0.30;;;20.10;1.00;;;;;;5062356;28;20090;-80
2023/08/21 09:13:52;;;;;;;0.70;0.40;;;20.30;99.90;;;;;;5065658;28;20076;-79
2023/08/21 09:16:19;;;;;;;0.52;0.20;;;20.40;99.90;;;;;;5064083;28;20060;-80
2023/08/21 09:18:50;;;;;;;0.73;0.30;;;20.40;99.90;;;;;;5065456;28;20058;-80
2023/08/21 09:21:20;;;;;;;0.30;0.30;;;20.60;99.90;;;;;;5065152;28;20114;-80
2023/08/21 09:23:48;;;;;;;0.30;0.28;;;20.90;99.90;;;;;;5063752;28;20117;-81
2023/08/21 09:26:20;;;;;;;0.20;0.20;;;21.10;99.90;;;;;;5060460;28;20052;-80
2023/08/21 09:28:51;;;;;;;0.17;0.17;;;21.20;94.70;;;;;;5045526;28;20541;-80
2023/08/21 09:31:29;;;;;;;0.70;0.35;;;21.10;78.10;;;;;;5031094;28;20057;-80
2023/08/21 09:33:57;;;;;;;0.50;0.40;;;20.90;86.50;;;;;;5046857;28;20618;-80
2023/08/21 09:36:24;;;;;;;0.20;0.20;;;20.80;90.50;;;;;;5047598;28;20045;-80
2023/08/21 09:38:52;;;;;;;0.43;0.30;;;20.90;92.70;;;;;;5064075;28;20052;-80
2023/08/21 09:41:20;;;;;;;0.43;0.22;;;20.80;99.90;;;;;;5045342;28;20659;-80
2023/08/21 09:43:46;;;;;;;0.43;0.22;;;20.80;93.10;;;;;;5043878;28;20492;-80
2023/08/21 09:46:17;;;;;;;0.30;0.30;;;20.80;90.10;;;;;;5043395;28;20112;-79
2023/08/21 09:48:45;;;;;;;0.28;0.28;;;20.90;73.60;;;;;;5044278;28;20224;-81
2023/08/21 09:51:12;;;;;;;0.22;0.20;;;21.10;80.30;;;;;;5061740;28;20109;-80
2023/08/21 09:53:39;;;;;;;0.30;0.30;;;21.20;81.60;;;;;;5063231;28;20473;-81
2023/08/21 09:56:07;;;;;;;0.95;0.50;;;21.30;76.60;;;;;;5043354;28;20648;-80
2023/08/21 09:58:36;;;;;;;0.45;0.35;;;21.30;63.40;;;;;;5060258;28;20543;-81
2023/08/21 10:01:11;;;;;;;0.40;0.30;;;21.50;68.40;;;;;;5060862;28;20052;-81
2023/08/21 10:03:40;;;;;;;0.17;0.17;;;21.50;59.30;;;;;;5059718;28;20045;-81
2023/08/21 10:06:08;;;;;;;0.93;0.40;;;21.60;62.80;;;;;;5059346;28;20161;-81
2023/08/21 10:08:38;;;;;;;0.45;0.40;;;21.70;60.50;;;;;;5060828;28;20052;-81
2023/08/21 10:11:06;;;;;;;0.57;0.30;;;21.60;54.60;;;;;;5062356;28;20122;-81
2023/08/21 10:13:33;;;;;;;0.40;0.40;;;21.70;53.90;;;;;;5043529;28;20492;-81
2023/08/21 10:16:00;;;;;;;0.82;0.45;;;21.80;52.90;;;;;;5060051;28;20064;-81
2023/08/21 10:18:32;;;;;;;0.68;0.40;;;22.00;56.60;;;;;;5061647;28;20480;-82
2023/08/21 10:21:11;;;;;;;0.57;0.30;;;22.00;48.90;;;;;;5063687;28;20068;-81
2023/08/21 10:23:38;;;;;;;0.50;0.40;;;21.90;46.10;;;;;;5062585;28;20060;-82
2023/08/21 10:26:11;;;;;;;0.35;0.35;;;22.00;49.70;;;;;;5057999;28;20052;-81
2023/08/21 10:28:43;;;;;;;0.80;0.43;;;22.10;49.20;;;;;;5059806;28;20128;-81
2023/08/21 10:31:40;;;;;;;0.60;0.32;;;22.10;46.90;;;;;;5061977;28;20052;-81
2023/08/21 10:34:08;;;;;;;0.43;0.30;;;22.10;44.80;;;;;;5039325;28;20060;-81
2023/08/21 10:36:44;;;;;;;0.60;0.30;;;22.30;43.40;;;;;;5043573;28;20076;-81
2023/08/21 10:39:22;;;;;;;0.40;0.30;;;22.40;42.10;;;;;;5064954;28;20154;-81
2023/08/21 10:41:55;;;;;;;0.20;0.20;;;22.40;38.40;;;;;;5062530;28;20052;-81
2023/08/21 10:44:35;;;;;;;0.55;0.43;;;22.30;38.60;;;;;;5064334;28;20049;-82
2023/08/21 10:47:22;;;;;;;0.50;0.40;;;22.30;37.70;;;;;;5063618;28;20048;-81
2023/08/21 10:49:51;;;;;;;0.30;0.30;;;22.40;35.40;;;;;;5064300;28;20049;-81
2023/08/21 10:52:46;;;;;;;0.35;0.30;;;22.50;36.90;;;;;;5046061;28;20071;-81
2023/08/21 10:55:14;;;;;;;1.25;0.60;;;22.60;32.20;;;;;;5046828;28;20080;-81
2023/08/21 10:57:41;;;;;;;0.40;0.40;;;22.70;32.20;;;;;;5044055;28;20048;-81
2023/08/21 11:00:13;;;;;;;0.30;0.30;;;22.80;32.70;;;;;;5045864;28;20542;-81
2023/08/21 11:02:43;;;;;;;0.20;0.20;;;23.00;32.80;;;;;;5063508;28;20056;-81
2023/08/21 11:05:11;;;;;;;0.30;0.30;;;23.20;33.70;;;;;;5062044;28;20135;-81
2023/08/21 11:07:46;;;;;;;0.30;0.30;;;23.30;31.00;;;;;;5062251;28;20053;-81
2023/08/21 11:10:23;;;;;;;0.30;0.30;;;23.30;29.50;;;;;;5062651;28;20045;-81
2023/08/21 11:12:49;;;;;;;0.77;0.45;;;23.20;28.70;;;;;;5060357;28;20048;-81
2023/08/21 11:15:17;;;;;;;0.20;0.20;;;23.40;28.40;;;;;;5063636;28;20106;-81
2023/08/21 11:17:58;;;;;;;0.35;0.35;;;23.50;27.90;;;;;;5062425;28;20049;-81
2023/08/21 11:20:32;;;;;;;0.60;0.30;;;23.60;27.60;;;;;;5063431;28;20052;-81
2023/08/21 11:23:02;;;;;;;0.40;0.40;;;23.90;27.60;;;;;;5047091;28;20044;-81
2023/08/21 11:25:29;;;;;;;1.40;0.30;;;24.10;23.60;;;;;;5046789;28;20040;-82
2023/08/21 11:27:56;;;;;;;0.77;0.40;;;24.30;22.60;;;;;;5028355;28;20098;-82
2023/08/21 11:30:23;;;;;;;0.30;0.30;;;24.30;21.30;;;;;;5067402;28;20048;-81
2023/08/21 11:33:10;;;;;;;0.30;0.30;;;24.40;19.20;;;;;;5067162;28;20044;-82
2023/08/21 11:35:37;;;;;;;0.50;0.50;;;24.50;18.60;;;;;;5045877;28;20045;-81
2023/08/21 11:38:04;;;;;;;0.65;0.40;;;24.60;16.60;;;;;;5062857;28;20145;-79
2023/08/21 11:40:35;;;;;;;0.40;0.25;;;24.90;16.30;;;;;;5057491;28;20052;-79
2023/08/21 11:43:03;;;;;;;0.30;0.25;;;25.00;15.50;;;;;;5064700;28;20117;-80
2023/08/21 11:45:30;;;;;;;0.52;0.30;;;25.10;16.30;;;;;;5065960;28;20078;-80
2023/08/21 11:48:07;;;;;;;0.30;0.20;;;25.30;14.50;;;;;;5066525;28;20048;-80
2023/08/21 11:50:34;;;;;;;0.32;0.20;;;25.40;15.40;;;;;;5049605;28;20139;-80
2023/08/21 11:53:02;;;;;;;0.70;0.40;;;25.80;14.30;;;;;;5032479;28;20462;-80
2023/08/21 11:55:29;;;;;;;0.32;0.30;;;25.90;13.90;;;;;;5048555;28;20045;-79
2023/08/21 11:57:57;;;;;;;0.45;0.45;;;26.10;13.50;;;;;;5065813;28;20429;-80
2023/08/21 12:00:28;;;;;;;0.55;0.40;;;26.30;11.80;;;;;;5067432;28;20052;-80
2023/08/21 12:02:58;;;;;;;0.38;0.38;;;26.50;12.60;;;;;;5066852;28;20114;-80
2023/08/21 12:05:29;;;;;;;0.40;0.40;;;26.60;10.70;;;;;;5066895;28;20056;-80
2023/08/21 12:07:56;;;;;;;0.60;0.47;;;26.60;4.70;;;;;;5065363;28;20048;-81
2023/08/21 12:10:26;;;;;;;0.45;0.32;;;26.60;2.20;;;;;;5065442;28;20452;-80
2023/08/21 12:12:53;;;;;;;1.15;0.50;;;26.50;2.40;;;;;;5047114;28;20047;-80
2023/08/21 12:15:20;;;;;;;0.60;0.40;;;26.60;2.70;;;;;;5064662;28;20088;-82
2023/08/21 12:17:47;;;;;;;1.25;0.60;;;26.90;3.70;;;;;;5065152;28;20522;-81
2023/08/21 12:20:14;;;;;;;0.50;0.47;;;27.00;1.00;;;;;;5065220;28;20092;-81
2023/08/21 12:22:43;;;;;;;1.10;0.70;;;27.00;1.00;;;;;;5065882;28;20496;-81
2023/08/21 12:25:11;;;;;;;0.50;0.50;;;26.90;1.00;;;;;;5046054;28;20060;-81
2023/08/21 12:27:37;;;;;;;0.73;0.52;;;26.80;1.00;;;;;;5043870;28;20044;-81
2023/08/21 12:30:05;;;;;;;0.73;0.73;;;27.30;1.00;;;;;;5064020;28;20124;-79
2023/08/21 12:32:32;;;;;;;1.27;0.88;;;27.70;1.00;;;;;;5044997;28;20103;-81
2023/08/21 12:34:59;;;;;;;1.20;0.85;;;27.80;1.00;;;;;;5044515;28;20060;-81
2023/08/21 12:37:26;;;;;;;0.68;0.60;;;28.10;1.00;;;;;;5065781;28;20058;-81
2023/08/21 12:39:53;;;;;;;1.02;0.90;;;28.70;1.00;;;;;;5066765;28;20049;-81
2023/08/21 12:42:20;;;;;;;0.73;0.73;;;29.20;1.00;;;;;;5046771;28;20047;-81
2023/08/21 12:44:47;;;;;;;0.73;0.70;;;29.30;1.00;;;;;;5056071;28;20053;-81
2023/08/21 12:47:13;;;;;;;0.70;0.70;;;29.60;1.00;;;;;;5028371;28;20060;-82
2023/08/21 12:49:41;;;;;;;1.02;0.90;;;29.70;1.00;;;;;;5047172;28;20049;-82
2023/08/21 12:52:07;;;;;;;1.45;0.93;;;29.80;1.00;;;;;;5064621;28;20102;-81
2023/08/21 12:54:36;;;;;;;1.10;1.00;;;29.60;1.00;;;;;;5064505;28;20052;-81